Time;durP1;ratioP1;P1;durP2;ratioP2;P2;SDS_P1;SDS_P2;PMS_P1;PMS_P2;Temp;Humidity;BMP_temperature;BMP_pressure;BME280_temperature;BME280_humidity;BME280_pressure;Samples;Min_cycle;Max_cycle;Signal;HPM_P1;HPM_P2
2023/02/19 00:02:09;;;;;;;3.20;2.73;;;6.80;99.90;;;;;;5109433;28;20242;-69
2023/02/19 00:04:36;;;;;;;3.57;3.37;;;6.80;99.90;;;;;;5109342;28;20259;-70
2023/02/19 00:07:03;;;;;;;3.20;3.00;;;6.80;99.90;;;;;;5109014;28;20248;-70
2023/02/19 00:09:30;;;;;;;4.33;3.17;;;6.80;99.90;;;;;;5108953;28;20639;-70
2023/02/19 00:11:57;;;;;;;3.30;3.10;;;6.80;99.90;;;;;;5109032;28;20206;-70
2023/02/19 00:14:24;;;;;;;4.23;3.83;;;6.80;99.90;;;;;;5109239;28;20262;-70
2023/02/19 00:16:52;;;;;;;3.73;3.53;;;6.80;99.90;;;;;;5108821;28;20289;-70
2023/02/19 00:19:20;;;;;;;4.10;3.80;;;6.80;99.90;;;;;;5114270;27;20292;-70
2023/02/19 00:21:48;;;;;;;4.23;3.93;;;6.80;99.90;;;;;;5114989;27;20214;-70
2023/02/19 00:24:15;;;;;;;4.60;4.30;;;6.80;99.90;;;;;;5108629;28;20289;-69
2023/02/19 00:26:43;;;;;;;5.27;4.87;;;6.80;99.90;;;;;;5098888;28;20191;-69
2023/02/19 00:29:14;;;;;;;5.33;4.93;;;6.80;99.90;;;;;;5088256;28;20298;-69
2023/02/19 00:31:40;;;;;;;4.60;4.20;;;6.70;99.90;;;;;;5102916;28;20281;-69
2023/02/19 00:34:10;;;;;;;5.17;4.70;;;6.70;99.90;;;;;;5108279;28;20241;-69
2023/02/19 00:36:39;;;;;;;5.00;4.60;;;6.70;99.90;;;;;;5108810;28;20715;-69
2023/02/19 00:39:07;;;;;;;4.57;4.20;;;6.70;99.90;;;;;;5107819;28;20202;-69
2023/02/19 00:41:34;;;;;;;4.43;4.13;;;6.70;99.90;;;;;;5108419;28;20208;-69
2023/02/19 00:44:04;;;;;;;4.33;3.93;;;6.70;99.90;;;;;;5108285;28;20301;-69
2023/02/19 00:46:33;;;;;;;4.60;4.20;;;6.70;99.90;;;;;;5108093;28;20209;-69
2023/02/19 00:49:01;;;;;;;4.47;4.17;;;6.60;99.90;;;;;;5117075;27;20264;-69
2023/02/19 00:51:31;;;;;;;4.50;4.20;;;6.60;99.90;;;;;;5116445;27;20202;-69
2023/02/19 00:53:58;;;;;;;4.60;4.20;;;6.50;99.90;;;;;;5107676;28;20217;-69
2023/02/19 00:56:25;;;;;;;4.90;4.50;;;6.50;99.90;;;;;;5108062;28;21071;-69
2023/02/19 00:58:52;;;;;;;4.93;4.53;;;6.50;99.90;;;;;;5107855;28;20225;-70
2023/02/19 01:01:19;;;;;;;4.93;4.53;;;6.50;99.90;;;;;;5107858;27;20249;-70
2023/02/19 01:03:47;;;;;;;4.53;4.13;;;6.60;99.90;;;;;;5108083;28;20519;-69
2023/02/19 01:06:17;;;;;;;4.90;4.50;;;6.50;99.90;;;;;;5107823;28;20249;-69
2023/02/19 01:08:46;;;;;;;4.30;4.00;;;6.40;99.90;;;;;;5107747;28;20244;-70
2023/02/19 01:11:13;;;;;;;5.03;4.63;;;6.40;99.90;;;;;;5107710;28;20206;-70
2023/02/19 01:13:41;;;;;;;4.13;3.83;;;6.30;99.90;;;;;;5107567;28;20767;-70
2023/02/19 01:16:12;;;;;;;6.77;4.77;;;6.30;99.90;;;;;;5113844;27;20293;-70
2023/02/19 01:18:39;;;;;;;4.53;4.03;;;6.30;99.90;;;;;;5096212;27;20680;-70
2023/02/19 01:21:07;;;;;;;4.63;4.23;;;6.30;99.90;;;;;;5107705;28;20293;-70
2023/02/19 01:23:35;;;;;;;4.13;3.83;;;6.20;99.90;;;;;;5107877;28;20210;-70
2023/02/19 01:26:06;;;;;;;4.47;4.07;;;6.20;99.90;;;;;;5107370;28;20229;-70
2023/02/19 01:28:33;;;;;;;4.20;3.90;;;6.20;99.90;;;;;;5107657;28;20285;-70
2023/02/19 01:31:02;;;;;;;4.40;4.10;;;6.30;99.90;;;;;;5110495;28;20289;-70
2023/02/19 01:33:29;;;;;;;4.23;3.93;;;6.20;99.90;;;;;;5111693;28;20233;-70
2023/02/19 01:35:56;;;;;;;4.60;4.30;;;6.20;99.90;;;;;;5111954;28;20201;-70
2023/02/19 01:38:23;;;;;;;4.40;4.10;;;6.20;99.90;;;;;;5111561;28;20310;-69
2023/02/19 01:40:55;;;;;;;4.07;3.77;;;6.30;99.90;;;;;;5111648;28;20194;-70
2023/02/19 01:43:24;;;;;;;3.53;3.23;;;6.40;99.90;;;;;;5111869;28;20209;-70
2023/02/19 01:45:51;;;;;;;3.50;3.20;;;6.40;99.90;;;;;;5111975;28;20620;-70
2023/02/19 01:48:21;;;;;;;4.83;3.60;;;6.40;99.90;;;;;;5111579;28;20324;-70
2023/02/19 01:50:53;;;;;;;3.50;3.20;;;6.40;99.90;;;;;;5111924;28;20190;-70
2023/02/19 01:53:24;;;;;;;4.73;3.17;;;6.40;99.90;;;;;;5111514;28;20281;-70
2023/02/19 01:55:55;;;;;;;3.03;2.73;;;6.40;99.90;;;;;;5111800;28;20226;-70
2023/02/19 01:58:25;;;;;;;4.10;3.23;;;6.50;99.90;;;;;;5111914;28;20273;-70
2023/02/19 02:00:52;;;;;;;5.27;3.30;;;6.50;99.90;;;;;;5111812;28;20616;-70
2023/02/19 02:03:20;;;;;;;3.37;3.17;;;6.40;99.90;;;;;;5103310;28;20759;-70
2023/02/19 02:05:54;;;;;;;3.13;2.80;;;6.40;99.90;;;;;;5111580;28;20313;-70
2023/02/19 02:11:05;;;;;;;3.07;2.80;;;6.40;99.90;;;;;;5109563;28;20193;-70
2023/02/19 02:13:36;;;;;;;2.93;2.60;;;6.40;99.90;;;;;;5115255;27;20321;-70
2023/02/19 02:16:14;;;;;;;2.73;2.53;;;6.40;99.90;;;;;;5111399;28;20298;-70
2023/02/19 02:18:52;;;;;;;3.03;2.77;;;6.30;99.90;;;;;;5103911;28;20289;-70
2023/02/19 02:21:56;;;;;;;3.67;2.67;;;6.30;99.90;;;;;;5110433;28;20182;-70
2023/02/19 02:24:47;;;;;;;3.20;2.63;;;6.30;99.90;;;;;;5110918;27;20302;-70
2023/02/19 02:27:28;;;;;;;5.33;3.17;;;6.30;99.90;;;;;;5110784;27;20285;-70
2023/02/19 02:30:10;;;;;;;3.23;3.03;;;6.30;99.90;;;;;;5110392;28;20288;-70
2023/02/19 02:32:52;;;;;;;3.30;2.87;;;6.30;99.90;;;;;;5110834;28;20817;-70
2023/02/19 02:35:22;;;;;;;3.40;3.10;;;6.30;99.90;;;;;;5111021;28;20224;-70
2023/02/19 02:37:50;;;;;;;3.80;3.33;;;6.30;99.90;;;;;;5110830;28;20289;-70
2023/02/19 02:40:18;;;;;;;3.60;3.30;;;6.30;99.90;;;;;;5110187;28;20311;-70
2023/02/19 02:42:45;;;;;;;3.57;3.27;;;6.30;99.90;;;;;;5110529;27;20229;-70
2023/02/19 02:45:35;;;;;;;3.37;3.10;;;6.30;99.90;;;;;;5110282;28;20259;-70
2023/02/19 02:48:08;;;;;;;3.60;3.30;;;6.30;99.90;;;;;;5111222;27;20285;-70
2023/02/19 02:50:39;;;;;;;4.00;3.20;;;6.30;99.90;;;;;;5131307;27;20288;-70
2023/02/19 02:55:54;;;;;;;3.37;3.03;;;6.30;99.90;;;;;;5104726;27;20708;-71
2023/02/19 02:58:24;;;;;;;3.73;3.40;;;6.30;99.90;;;;;;5110334;28;20210;-70
2023/02/19 03:03:45;;;;;;;3.80;3.37;;;6.30;99.90;;;;;;5089818;28;20198;-70
2023/02/19 03:06:15;;;;;;;4.23;3.93;;;6.30;99.90;;;;;;5089946;28;20318;-70
2023/02/19 03:08:48;;;;;;;4.70;3.93;;;6.30;99.90;;;;;;5103249;27;20707;-70
2023/02/19 03:19:45;;;;;;;4.17;3.53;;;6.20;99.90;;;;;;5124915;27;20246;-70
2023/02/19 03:22:18;;;;;;;4.27;3.90;;;6.20;99.90;;;;;;5108573;28;20221;-70
2023/02/19 03:27:37;;;;;;;5.77;3.80;;;6.20;99.90;;;;;;5110105;28;20190;-70
2023/02/19 03:30:10;;;;;;;5.67;3.90;;;6.20;99.90;;;;;;5108283;28;20237;-70
2023/02/19 03:32:41;;;;;;;4.40;4.00;;;6.10;99.90;;;;;;5099711;28;20741;-70
2023/02/19 03:35:13;;;;;;;4.20;3.80;;;6.10;99.90;;;;;;5109906;28;20227;-70
2023/02/19 03:37:45;;;;;;;3.97;3.57;;;6.10;99.90;;;;;;5109287;28;20567;-70
2023/02/19 03:40:12;;;;;;;4.47;3.33;;;6.10;99.90;;;;;;5109877;28;20297;-70
2023/02/19 03:42:46;;;;;;;3.93;3.40;;;6.10;99.90;;;;;;5109551;28;20332;-68
2023/02/19 03:45:30;;;;;;;4.37;3.53;;;6.00;99.90;;;;;;5109486;27;20297;-69
2023/02/19 03:48:11;;;;;;;3.00;2.67;;;6.00;99.90;;;;;;5109578;28;20277;-69
2023/02/19 03:50:44;;;;;;;3.47;2.83;;;5.90;99.90;;;;;;5109708;27;20194;-69
2023/02/19 03:53:18;;;;;;;2.77;2.27;;;5.90;99.90;;;;;;5108502;28;20289;-69
2023/02/19 03:55:54;;;;;;;2.50;2.30;;;5.80;99.90;;;;;;5109610;28;20230;-68
2023/02/19 03:58:28;;;;;;;4.10;2.30;;;5.80;99.90;;;;;;5109616;28;20204;-69
2023/02/19 04:01:01;;;;;;;4.70;2.30;;;5.80;99.90;;;;;;5109440;28;20218;-70
2023/02/19 04:03:36;;;;;;;5.73;2.23;;;5.70;99.90;;;;;;5109683;28;20277;-69
2023/02/19 04:06:07;;;;;;;5.27;2.43;;;5.60;99.90;;;;;;5117826;27;20260;-69
2023/02/19 04:08:36;;;;;;;3.20;1.90;;;5.60;99.90;;;;;;5109004;28;20277;-70
2023/02/19 04:11:04;;;;;;;2.43;2.00;;;5.70;99.90;;;;;;5109080;28;20285;-69
2023/02/19 04:13:35;;;;;;;2.03;1.90;;;5.60;99.90;;;;;;5109615;28;20607;-69
2023/02/19 04:16:07;;;;;;;2.57;2.00;;;5.60;99.90;;;;;;5108810;28;20313;-69
2023/02/19 04:18:39;;;;;;;6.03;2.23;;;5.60;99.90;;;;;;5109107;28;20285;-69
2023/02/19 04:21:07;;;;;;;3.43;2.07;;;5.60;99.90;;;;;;5108902;28;21072;-69
2023/02/19 04:23:42;;;;;;;2.87;2.17;;;5.50;99.90;;;;;;5108750;28;20305;-69
2023/02/19 04:26:10;;;;;;;4.50;2.00;;;5.50;99.90;;;;;;5108735;28;20186;-69
2023/02/19 04:28:38;;;;;;;3.23;2.30;;;5.50;99.90;;;;;;5108487;28;20755;-69
2023/02/19 04:31:06;;;;;;;3.37;2.07;;;5.50;99.90;;;;;;5108241;28;20676;-70
2023/02/19 04:33:32;;;;;;;2.47;2.17;;;5.50;99.90;;;;;;5107756;28;20273;-69
2023/02/19 04:36:01;;;;;;;3.10;2.20;;;5.40;99.90;;;;;;5108441;28;20313;-69
2023/02/19 04:38:28;;;;;;;2.47;2.20;;;5.40;99.90;;;;;;5108255;28;20281;-69
2023/02/19 04:40:55;;;;;;;3.87;2.50;;;5.40;99.90;;;;;;5108460;28;20241;-70
2023/02/19 04:43:22;;;;;;;3.60;2.00;;;5.40;99.90;;;;;;5108111;28;20700;-70
2023/02/19 04:45:48;;;;;;;5.00;2.17;;;5.40;99.90;;;;;;5103210;28;20199;-70
2023/02/19 04:48:15;;;;;;;2.50;1.80;;;5.40;99.90;;;;;;5090524;28;20317;-70
2023/02/19 04:50:42;;;;;;;1.83;1.50;;;5.40;99.90;;;;;;5108283;28;20289;-70
2023/02/19 04:53:10;;;;;;;3.90;1.87;;;5.40;99.90;;;;;;5108006;28;20289;-69
2023/02/19 04:55:38;;;;;;;3.10;1.60;;;5.40;99.90;;;;;;5108288;28;20261;-70
2023/02/19 04:58:05;;;;;;;4.00;1.80;;;5.40;99.90;;;;;;5108108;28;20289;-70
2023/02/19 05:00:32;;;;;;;5.10;2.23;;;5.30;99.90;;;;;;5108302;28;20220;-69
2023/02/19 05:02:59;;;;;;;4.73;2.00;;;5.30;99.90;;;;;;5107854;28;20210;-69
2023/02/19 05:05:27;;;;;;;4.17;2.10;;;5.30;99.90;;;;;;5102688;28;20637;-69
2023/02/19 05:07:54;;;;;;;3.07;1.80;;;5.30;99.90;;;;;;5087383;28;20321;-69
2023/02/19 05:10:22;;;;;;;2.17;2.03;;;5.30;99.90;;;;;;5087794;28;20207;-70
2023/02/19 05:12:49;;;;;;;2.10;1.90;;;5.30;99.90;;;;;;5092349;28;20281;-69
2023/02/19 05:15:16;;;;;;;3.73;2.17;;;5.20;99.90;;;;;;5107934;28;20234;-69
2023/02/19 05:17:43;;;;;;;2.60;2.10;;;5.20;99.90;;;;;;5108324;28;20281;-69
2023/02/19 05:20:10;;;;;;;4.33;2.00;;;5.20;99.90;;;;;;5116002;27;20656;-69
2023/02/19 05:22:37;;;;;;;3.70;2.30;;;5.20;99.90;;;;;;5107519;28;20893;-69
2023/02/19 05:25:05;;;;;;;2.37;2.03;;;5.20;99.90;;;;;;5107786;28;20218;-69
2023/02/19 05:27:33;;;;;;;3.03;2.20;;;5.20;99.90;;;;;;5106606;28;20195;-69
2023/02/19 05:30:00;;;;;;;4.53;2.00;;;5.20;99.90;;;;;;5107774;28;20280;-69
2023/02/19 05:32:27;;;;;;;2.20;2.00;;;5.20;99.90;;;;;;5107969;28;20869;-69
2023/02/19 05:34:53;;;;;;;3.27;2.10;;;5.20;99.90;;;;;;5107740;28;20340;-69
2023/02/19 05:37:20;;;;;;;2.60;2.13;;;5.20;99.90;;;;;;5107620;28;21014;-69
2023/02/19 05:39:48;;;;;;;3.00;1.90;;;5.20;99.90;;;;;;5107706;28;20238;-68
2023/02/19 05:42:15;;;;;;;2.50;2.00;;;5.20;99.90;;;;;;5107890;28;20289;-68
2023/02/19 05:44:44;;;;;;;2.87;2.00;;;5.10;99.90;;;;;;5107784;28;20244;-69
2023/02/19 05:47:11;;;;;;;3.10;2.03;;;5.10;99.90;;;;;;5106960;28;20293;-70
2023/02/19 05:49:38;;;;;;;2.40;2.10;;;5.10;99.90;;;;;;5116104;28;20290;-69
2023/02/19 05:52:05;;;;;;;2.77;1.90;;;5.10;99.90;;;;;;5128581;27;20236;-69
2023/02/19 05:54:32;;;;;;;4.50;2.07;;;5.10;99.90;;;;;;5128338;27;20747;-69
2023/02/19 05:56:59;;;;;;;2.83;1.93;;;5.10;99.90;;;;;;5117553;27;20284;-69
2023/02/19 05:59:26;;;;;;;2.50;2.20;;;5.10;99.90;;;;;;5113212;27;20304;-69
2023/02/19 06:01:57;;;;;;;3.60;2.30;;;5.10;99.90;;;;;;5107469;28;20664;-69
2023/02/19 06:04:23;;;;;;;4.27;2.20;;;5.10;99.90;;;;;;5088547;28;20219;-69
2023/02/19 06:06:50;;;;;;;2.87;2.10;;;5.10;99.90;;;;;;5087054;28;21020;-69
2023/02/19 06:09:18;;;;;;;2.07;1.90;;;5.10;99.90;;;;;;5093347;28;20238;-69
2023/02/19 06:11:45;;;;;;;2.23;2.00;;;5.10;99.90;;;;;;5107238;28;20271;-69
2023/02/19 06:14:13;;;;;;;2.47;2.10;;;5.10;99.90;;;;;;5107526;28;20213;-69
2023/02/19 06:16:40;;;;;;;3.90;2.37;;;5.10;99.90;;;;;;5109355;28;20233;-69
2023/02/19 06:19:09;;;;;;;2.10;1.90;;;5.10;99.90;;;;;;5121213;27;20205;-69
2023/02/19 06:21:36;;;;;;;2.70;1.87;;;5.00;99.90;;;;;;5131523;27;20305;-70
2023/02/19 06:24:07;;;;;;;1.80;1.70;;;5.00;99.90;;;;;;5131036;27;20296;-70
2023/02/19 06:26:34;;;;;;;3.00;1.80;;;5.10;99.90;;;;;;5131684;27;20565;-69
2023/02/19 06:29:01;;;;;;;1.90;1.73;;;5.20;99.90;;;;;;5118860;27;20688;-69
2023/02/19 06:31:28;;;;;;;4.50;2.10;;;5.30;99.90;;;;;;5101652;28;20281;-69
2023/02/19 06:33:55;;;;;;;3.23;2.43;;;5.30;99.90;;;;;;5112293;27;20297;-69
2023/02/19 06:36:23;;;;;;;2.37;1.77;;;5.30;99.90;;;;;;5116038;27;20271;-69
2023/02/19 06:38:51;;;;;;;2.00;1.87;;;5.30;99.90;;;;;;5110618;28;20206;-70
2023/02/19 06:41:18;;;;;;;2.10;1.90;;;5.20;99.90;;;;;;5110968;28;20301;-70
2023/02/19 06:43:45;;;;;;;4.80;2.17;;;5.10;99.90;;;;;;5110377;28;20302;-69
2023/02/19 06:46:13;;;;;;;2.37;2.00;;;5.00;99.90;;;;;;5110282;28;20201;-69
2023/02/19 06:48:41;;;;;;;1.90;1.80;;;5.00;99.90;;;;;;5116630;27;20264;-69
2023/02/19 06:51:08;;;;;;;2.23;2.03;;;4.90;99.90;;;;;;5130851;27;20216;-69
2023/02/19 06:53:36;;;;;;;3.20;2.20;;;4.80;99.90;;;;;;5130711;27;20288;-69
2023/02/19 06:56:05;;;;;;;3.13;2.43;;;4.80;99.90;;;;;;5107596;27;20785;-69
2023/02/19 06:58:33;;;;;;;3.00;2.07;;;4.70;99.90;;;;;;5090736;28;20218;-69
2023/02/19 07:01:00;;;;;;;7.27;2.90;;;4.70;99.90;;;;;;5110348;28;20301;-69
2023/02/19 07:03:27;;;;;;;4.60;2.30;;;4.60;99.90;;;;;;5110372;28;20293;-69
2023/02/19 07:05:54;;;;;;;2.43;2.23;;;4.60;99.90;;;;;;5109700;28;20261;-68
2023/02/19 07:08:21;;;;;;;2.30;2.10;;;4.50;99.90;;;;;;5110088;28;20290;-71
2023/02/19 07:10:56;;;;;;;3.43;2.70;;;4.50;99.90;;;;;;5110342;28;20293;-68
2023/02/19 07:13:23;;;;;;;3.77;2.30;;;4.40;99.90;;;;;;5110254;28;20276;-68
2023/02/19 07:15:51;;;;;;;8.13;2.30;;;4.40;99.90;;;;;;5109959;28;20261;-68
2023/02/19 07:18:45;;;;;;;5.77;2.40;;;4.20;99.90;;;;;;5109796;28;20289;-69
2023/02/19 07:21:14;;;;;;;3.50;2.37;;;4.20;99.90;;;;;;5104134;27;20204;-69
2023/02/19 07:23:42;;;;;;;4.03;2.30;;;4.20;99.90;;;;;;5109481;28;20209;-69
2023/02/19 07:26:12;;;;;;;3.10;2.10;;;4.20;99.90;;;;;;5109440;28;20296;-69
2023/02/19 07:28:40;;;;;;;3.10;1.97;;;4.20;99.90;;;;;;5103724;28;20278;-69
2023/02/19 07:31:07;;;;;;;2.93;2.20;;;4.20;99.90;;;;;;5098813;27;20340;-69
2023/02/19 07:33:34;;;;;;;2.60;2.03;;;4.10;99.90;;;;;;5109830;28;20727;-69
2023/02/19 07:36:01;;;;;;;2.40;2.20;;;4.10;99.90;;;;;;5110031;28;20321;-69
2023/02/19 07:38:28;;;;;;;2.77;2.20;;;4.10;99.90;;;;;;5109751;28;20237;-69
2023/02/19 07:40:57;;;;;;;2.47;2.27;;;4.10;99.90;;;;;;5109583;28;20671;-68
2023/02/19 07:43:27;;;;;;;4.70;2.50;;;4.10;99.90;;;;;;5109466;28;20719;-69
2023/02/19 07:45:55;;;;;;;4.07;2.93;;;4.10;99.90;;;;;;5109929;27;20245;-69
2023/02/19 07:48:22;;;;;;;3.90;2.27;;;4.20;99.90;;;;;;5109645;27;20275;-69
2023/02/19 07:50:52;;;;;;;6.87;2.23;;;4.10;99.90;;;;;;5116022;27;20641;-69
2023/02/19 07:53:19;;;;;;;2.50;2.30;;;4.10;99.90;;;;;;5109560;28;20565;-69
2023/02/19 07:55:46;;;;;;;4.90;2.27;;;4.20;99.90;;;;;;5109243;28;20256;-69
2023/02/19 07:58:13;;;;;;;2.20;2.00;;;4.10;99.90;;;;;;5109356;28;20237;-69
2023/02/19 08:00:41;;;;;;;4.03;2.30;;;4.10;99.90;;;;;;5109308;28;20248;-69
2023/02/19 08:03:07;;;;;;;2.90;2.30;;;4.20;99.90;;;;;;5110534;27;20297;-70
2023/02/19 08:05:37;;;;;;;3.80;1.90;;;4.30;99.90;;;;;;5108842;28;20659;-70
2023/02/19 08:08:06;;;;;;;3.47;2.40;;;4.30;99.90;;;;;;5108798;28;20277;-69
2023/02/19 08:13:22;;;;;;;2.37;2.07;;;4.50;99.90;;;;;;5108796;28;20204;-69
2023/02/19 08:15:52;;;;;;;5.93;2.10;;;4.50;99.90;;;;;;5108836;28;20214;-70
2023/02/19 08:18:20;;;;;;;2.80;1.80;;;4.60;99.90;;;;;;5112305;27;20205;-70
2023/02/19 08:20:47;;;;;;;3.90;1.80;;;4.70;99.90;;;;;;5123604;27;20216;-70
2023/02/19 08:23:15;;;;;;;4.40;1.40;;;4.70;99.90;;;;;;5108608;28;20292;-69
2023/02/19 08:25:42;;;;;;;2.17;1.60;;;4.60;99.90;;;;;;5109115;28;20229;-70
2023/02/19 08:28:10;;;;;;;4.80;2.20;;;4.60;99.90;;;;;;5108120;28;20233;-70
2023/02/19 08:30:38;;;;;;;4.57;1.70;;;4.60;99.90;;;;;;5108781;28;20301;-69
2023/02/19 08:33:08;;;;;;;3.47;1.93;;;4.60;99.90;;;;;;5106842;28;20297;-70
2023/02/19 08:35:35;;;;;;;3.00;2.00;;;4.70;99.90;;;;;;5108515;28;20257;-70
2023/02/19 08:38:02;;;;;;;3.70;2.73;;;4.80;99.90;;;;;;5108342;28;20202;-70
2023/02/19 08:40:29;;;;;;;3.03;2.73;;;4.90;99.90;;;;;;5108473;28;20209;-69
2023/02/19 08:42:56;;;;;;;2.43;1.90;;;5.00;99.90;;;;;;5108426;28;20230;-70
2023/02/19 08:45:23;;;;;;;1.43;1.30;;;5.00;99.90;;;;;;5108543;28;20202;-70
2023/02/19 08:47:50;;;;;;;3.70;1.50;;;5.10;99.90;;;;;;5099327;28;20636;-70
2023/02/19 08:50:18;;;;;;;2.97;1.33;;;5.20;99.90;;;;;;5128530;27;20205;-70
2023/02/19 08:52:45;;;;;;;4.83;1.70;;;5.20;99.90;;;;;;5128457;27;20213;-70
2023/02/19 08:55:12;;;;;;;2.07;1.57;;;5.30;99.90;;;;;;5109126;27;20225;-70
2023/02/19 08:57:39;;;;;;;3.53;1.63;;;5.40;99.90;;;;;;5108316;28;20206;-70
2023/02/19 09:00:07;;;;;;;5.20;1.40;;;5.40;99.90;;;;;;5107991;28;20281;-70
2023/02/19 09:02:34;;;;;;;7.00;1.80;;;5.30;99.90;;;;;;5108306;28;20286;-70
2023/02/19 09:05:01;;;;;;;2.47;1.60;;;5.40;99.90;;;;;;5108016;28;20229;-70
2023/02/19 09:07:30;;;;;;;3.97;1.27;;;5.30;99.90;;;;;;5107925;28;20679;-70
2023/02/19 09:09:57;;;;;;;4.10;1.33;;;5.40;99.90;;;;;;5107877;28;20237;-70
2023/02/19 09:12:25;;;;;;;6.87;2.17;;;5.50;99.90;;;;;;5087964;28;20202;-70
2023/02/19 09:14:51;;;;;;;4.10;1.10;;;5.60;99.90;;;;;;5087443;28;20230;-70
2023/02/19 09:17:18;;;;;;;6.33;1.27;;;5.60;99.90;;;;;;5091004;28;20314;-70
2023/02/19 09:19:45;;;;;;;2.93;1.40;;;5.70;99.90;;;;;;5118423;27;20667;-70
2023/02/19 09:22:12;;;;;;;6.37;1.47;;;5.70;99.90;;;;;;5128212;27;20292;-70
2023/02/19 09:24:42;;;;;;;3.33;1.23;;;5.80;99.90;;;;;;5109844;27;20226;-70
2023/02/19 09:27:09;;;;;;;2.63;1.37;;;5.80;99.90;;;;;;5107777;28;20250;-69
2023/02/19 09:29:36;;;;;;;3.93;1.50;;;5.80;99.90;;;;;;5106840;28;20314;-70
2023/02/19 09:32:03;;;;;;;5.17;1.30;;;6.00;99.90;;;;;;5106223;28;20276;-70
2023/02/19 09:34:30;;;;;;;2.17;1.30;;;6.10;99.90;;;;;;5107772;28;20259;-70
2023/02/19 09:36:57;;;;;;;3.80;1.20;;;6.20;99.90;;;;;;5106682;28;20777;-70
2023/02/19 09:39:24;;;;;;;2.20;1.37;;;6.30;99.90;;;;;;5107423;28;20580;-70
2023/02/19 09:41:55;;;;;;;2.80;1.40;;;6.20;99.90;;;;;;5108692;28;20293;-70
2023/02/19 09:44:27;;;;;;;3.73;1.20;;;6.20;99.90;;;;;;5113981;27;20261;-70
2023/02/19 09:46:54;;;;;;;3.53;1.20;;;6.30;99.90;;;;;;5107647;28;20233;-70
2023/02/19 09:49:28;;;;;;;3.93;1.13;;;6.30;99.90;;;;;;5107277;28;20241;-70
2023/02/19 09:51:58;;;;;;;1.23;1.13;;;6.10;99.90;;;;;;5110431;28;20269;-70
2023/02/19 09:54:27;;;;;;;3.20;1.17;;;6.20;99.90;;;;;;5111556;27;20277;-70
2023/02/19 09:57:00;;;;;;;3.57;1.00;;;6.20;99.90;;;;;;5111814;27;20312;-70
2023/02/19 09:59:31;;;;;;;3.90;1.57;;;6.30;99.90;;;;;;5111494;28;20566;-70
2023/02/19 10:02:02;;;;;;;3.73;1.00;;;6.30;99.90;;;;;;5111761;28;20296;-70
2023/02/19 10:04:29;;;;;;;3.67;1.20;;;6.40;99.90;;;;;;5111581;28;20312;-70
2023/02/19 10:07:02;;;;;;;1.73;1.10;;;6.40;99.90;;;;;;5092105;28;20752;-70
2023/02/19 10:09:30;;;;;;;4.13;1.10;;;6.40;99.90;;;;;;5090662;28;20191;-70
2023/02/19 10:11:59;;;;;;;8.40;3.97;;;6.40;99.90;;;;;;5091112;28;20696;-70
2023/02/19 10:14:35;;;;;;;3.00;1.30;;;6.50;99.90;;;;;;5106736;28;20210;-70
2023/02/19 10:17:05;;;;;;;2.43;1.20;;;6.60;99.90;;;;;;5111220;28;20278;-70
2023/02/19 10:19:32;;;;;;;3.67;1.57;;;6.60;99.90;;;;;;5118490;27;20289;-70
2023/02/19 10:22:00;;;;;;;4.03;1.10;;;6.80;99.90;;;;;;5111029;27;20210;-70
2023/02/19 10:24:29;;;;;;;3.57;1.53;;;7.00;99.90;;;;;;5110930;28;20225;-71
2023/02/19 10:26:56;;;;;;;5.87;1.50;;;7.00;99.90;;;;;;5111297;28;20289;-71
2023/02/19 10:29:26;;;;;;;1.63;1.10;;;7.00;99.90;;;;;;5095658;28;20282;-69
2023/02/19 10:32:15;;;;;;;2.40;0.90;;;7.00;99.90;;;;;;5090643;28;20246;-70
2023/02/19 10:34:42;;;;;;;6.07;1.07;;;7.10;99.90;;;;;;5090956;28;20214;-70
2023/02/19 10:37:13;;;;;;;3.43;1.00;;;7.10;99.90;;;;;;5100189;28;20312;-70
2023/02/19 10:39:43;;;;;;;4.13;1.17;;;7.00;99.90;;;;;;5119473;27;20205;-70
2023/02/19 10:42:19;;;;;;;3.50;1.13;;;7.10;99.90;;;;;;5110874;28;20233;-69
2023/02/19 10:44:51;;;;;;;1.87;1.20;;;7.30;99.90;;;;;;5110390;28;20723;-69
2023/02/19 10:47:21;;;;;;;1.53;0.97;;;7.30;99.90;;;;;;5110409;28;20641;-70
2023/02/19 10:49:49;;;;;;;2.07;0.90;;;7.30;99.90;;;;;;5103635;28;20254;-70
2023/02/19 10:52:20;;;;;;;2.33;1.07;;;7.10;99.90;;;;;;5110609;28;20205;-70
2023/02/19 10:54:51;;;;;;;5.57;1.20;;;7.20;99.90;;;;;;5110272;28;20281;-70
2023/02/19 10:57:33;;;;;;;2.47;1.20;;;7.20;99.90;;;;;;5110609;28;20258;-70
2023/02/19 11:00:21;;;;;;;2.97;1.03;;;7.20;99.90;;;;;;5110367;28;20198;-70
2023/02/19 11:02:48;;;;;;;2.80;0.93;;;7.40;99.90;;;;;;5108799;28;20202;-70
2023/02/19 11:05:18;;;;;;;2.63;0.97;;;7.70;99.90;;;;;;5110607;28;20219;-70
2023/02/19 11:07:48;;;;;;;5.40;1.23;;;7.90;99.90;;;;;;5110176;27;20230;-70
2023/02/19 11:10:26;;;;;;;2.70;1.00;;;7.70;99.90;;;;;;5110473;28;20233;-70
2023/02/19 11:12:56;;;;;;;4.33;1.10;;;7.70;99.90;;;;;;5109486;28;20560;-70
2023/02/19 11:15:28;;;;;;;2.93;1.20;;;7.90;99.90;;;;;;5110292;27;20739;-70
2023/02/19 11:17:58;;;;;;;2.70;1.10;;;8.00;99.90;;;;;;5110348;28;20305;-70
2023/02/19 11:20:26;;;;;;;3.90;0.93;;;8.20;99.90;;;;;;5090312;28;20200;-70
2023/02/19 11:22:59;;;;;;;2.17;0.97;;;8.10;99.90;;;;;;5089492;28;20264;-70
2023/02/19 11:25:26;;;;;;;2.07;0.90;;;8.20;99.90;;;;;;5089973;28;20286;-70
2023/02/19 11:27:57;;;;;;;1.63;0.97;;;8.30;99.90;;;;;;5089888;28;20302;-70
2023/02/19 11:30:44;;;;;;;1.00;0.83;;;8.30;99.90;;;;;;5093811;28;20292;-70
2023/02/19 11:33:26;;;;;;;5.60;1.00;;;8.20;99.90;;;;;;5110050;28;20295;-70
2023/02/19 11:35:58;;;;;;;3.50;1.00;;;8.20;99.90;;;;;;5112347;27;20206;-70
2023/02/19 11:38:25;;;;;;;3.33;0.83;;;8.30;99.90;;;;;;5109490;28;20807;-70
2023/02/19 11:41:05;;;;;;;2.50;0.93;;;8.40;99.90;;;;;;5109587;28;20808;-70
2023/02/19 11:43:55;;;;;;;1.80;0.70;;;8.50;99.90;;;;;;5109720;28;20241;-70
2023/02/19 11:46:34;;;;;;;3.13;0.90;;;8.60;99.90;;;;;;5109532;28;20621;-70
2023/02/19 11:49:17;;;;;;;1.80;0.73;;;8.60;99.90;;;;;;5118076;27;20614;-70
2023/02/19 11:52:00;;;;;;;0.67;0.60;;;8.80;99.90;;;;;;5126352;27;20194;-70
2023/02/19 11:54:49;;;;;;;1.60;0.77;;;8.80;99.90;;;;;;5108898;28;20204;-70
2023/02/19 11:57:33;;;;;;;1.20;0.60;;;8.60;99.90;;;;;;5108970;28;20222;-70
2023/02/19 12:00:14;;;;;;;2.40;1.17;;;8.60;99.90;;;;;;5096387;28;20223;-70
2023/02/19 12:03:04;;;;;;;3.33;1.23;;;8.70;99.90;;;;;;5089082;28;20282;-70
2023/02/19 12:05:40;;;;;;;2.20;1.07;;;8.80;99.90;;;;;;5092000;28;20638;-69
2023/02/19 12:08:55;;;;;;;1.83;0.80;;;8.90;99.90;;;;;;5108863;28;20284;-71
2023/02/19 12:11:58;;;;;;;1.00;0.77;;;9.00;99.90;;;;;;5046018;28;20290;-71
2023/02/19 12:14:59;;;;;;;4.97;1.27;;;8.90;99.90;;;;;;5045086;28;20381;-71
2023/02/19 12:17:58;;;;;;;1.17;0.70;;;8.80;99.90;;;;;;5076673;28;20229;-71
2023/02/19 12:20:31;;;;;;;3.27;0.97;;;9.20;99.90;;;;;;5076260;28;20237;-70
2023/02/19 12:23:24;;;;;;;2.27;1.03;;;9.30;99.90;;;;;;5087970;28;20203;-70
2023/02/19 12:25:57;;;;;;;1.63;0.77;;;9.60;99.90;;;;;;5088155;28;20226;-70
2023/02/19 12:28:39;;;;;;;1.53;0.73;;;10.00;99.90;;;;;;5089013;28;20230;-70
2023/02/19 12:31:33;;;;;;;2.80;0.80;;;10.20;99.90;;;;;;5108855;28;20289;-70
2023/02/19 12:34:49;;;;;;;2.70;1.10;;;10.40;99.90;;;;;;5108572;28;20252;-70
2023/02/19 12:37:28;;;;;;;1.97;1.03;;;10.00;99.90;;;;;;5050631;28;20355;-69
2023/02/19 12:40:11;;;;;;;6.67;1.10;;;9.30;99.90;;;;;;5108612;28;20234;-69
2023/02/19 12:42:50;;;;;;;1.70;1.00;;;9.20;99.90;;;;;;5107607;27;20210;-69
2023/02/19 12:45:21;;;;;;;2.93;1.83;;;9.30;99.90;;;;;;5107993;28;20292;-69
2023/02/19 12:47:57;;;;;;;2.10;1.13;;;9.30;99.90;;;;;;5101058;27;20297;-69
2023/02/19 12:50:27;;;;;;;1.80;1.27;;;9.40;99.90;;;;;;5105212;28;20198;-70
2023/02/19 12:53:00;;;;;;;2.17;0.83;;;9.60;99.90;;;;;;5098701;27;20294;-69
2023/02/19 12:55:32;;;;;;;3.33;1.30;;;9.80;99.90;;;;;;5097457;28;20186;-70
2023/02/19 12:58:03;;;;;;;3.00;0.80;;;9.70;99.90;;;;;;5105381;28;20309;-70
2023/02/19 13:00:33;;;;;;;3.23;1.17;;;9.60;99.90;;;;;;5108065;28;20234;-70
2023/02/19 13:03:05;;;;;;;3.27;1.03;;;9.50;99.90;;;;;;5102024;28;20289;-70
2023/02/19 13:05:44;;;;;;;3.20;1.20;;;9.30;99.90;;;;;;5107868;27;20313;-70
2023/02/19 13:08:19;;;;;;;4.33;1.20;;;9.20;99.90;;;;;;5107643;28;20550;-70
2023/02/19 13:10:51;;;;;;;1.63;0.90;;;8.90;99.90;;;;;;5099195;28;20286;-70
2023/02/19 13:13:23;;;;;;;1.10;0.80;;;8.60;99.90;;;;;;5088150;28;20286;-70
2023/02/19 13:15:53;;;;;;;2.17;0.70;;;8.60;99.90;;;;;;5087971;28;20286;-70
2023/02/19 13:18:23;;;;;;;2.23;0.70;;;8.70;99.90;;;;;;5094831;28;20324;-70
2023/02/19 13:20:54;;;;;;;2.97;1.00;;;8.80;99.90;;;;;;5128840;27;20278;-70
2023/02/19 13:26:36;;;;;;;4.23;1.00;;;9.20;99.90;;;;;;5116387;27;20616;-70
2023/02/19 13:29:20;;;;;;;2.43;1.23;;;9.40;99.90;;;;;;5109101;28;20244;-70
2023/02/19 13:32:03;;;;;;;2.20;0.80;;;9.70;99.90;;;;;;5097480;28;20273;-70
2023/02/19 13:34:47;;;;;;;1.73;1.00;;;9.90;99.90;;;;;;5097513;28;20278;-70
2023/02/19 13:37:16;;;;;;;1.73;0.70;;;10.00;99.90;;;;;;5096485;28;20207;-71
2023/02/19 13:39:48;;;;;;;2.73;1.00;;;10.10;99.90;;;;;;5096732;28;20235;-71
2023/02/19 13:42:25;;;;;;;2.20;1.00;;;10.30;99.90;;;;;;5088924;28;20200;-71
2023/02/19 13:44:54;;;;;;;3.07;1.10;;;10.60;99.90;;;;;;5105420;28;20213;-71